Time;durP1;ratioP1;P1;durP2;ratioP2;P2;SDS_P1;SDS_P2;PMS_P1;PMS_P2;Temp;Humidity;BMP_temperature;BMP_pressure;BME280_temperature;BME280_humidity;BME280_pressure;Samples;Min_cycle;Max_cycle;Signal;HPM_P1;HPM_P2
2023/05/30 00:02:21;;;;;;;;;;;;;;;15.23;41.96;101430.03;4961614;28;6896;-73
2023/05/30 00:04:46;;;;;;;;;;;;;;;15.17;42.74;101427.16;4990501;28;6836;-75
2023/05/30 00:07:12;;;;;;;;;;;;;;;15.11;42.06;101426.88;4971377;28;7694;-74
2023/05/30 00:09:38;;;;;;;;;;;;;;;15.06;42.70;101430.97;4958801;28;7107;-74
2023/05/30 00:12:04;;;;;;;;;;;;;;;15.02;43.06;101436.78;4991158;28;6776;-73
2023/05/30 00:14:30;;;;;;;;;;;;;;;14.98;42.77;101439.22;4990148;28;6795;-73
2023/05/30 00:16:58;;;;;;;;;;;;;;;14.95;42.97;101438.19;4977923;28;8190;-74
2023/05/30 00:19:24;;;;;;;;;;;;;;;14.90;42.83;101434.53;4991086;28;6792;-72
2023/05/30 00:21:49;;;;;;;;;;;;;;;14.88;43.34;101438.75;4984805;28;7662;-73
2023/05/30 00:24:15;;;;;;;;;;;;;;;14.82;43.50;101432.47;4992855;28;6860;-73
2023/05/30 00:26:41;;;;;;;;;;;;;;;14.77;42.90;101436.50;4959522;28;6793;-73
2023/05/30 00:29:06;;;;;;;;;;;;;;;14.72;43.35;101438.88;4974515;28;6847;-73
2023/05/30 00:31:32;;;;;;;;;;;;;;;14.69;43.32;101445.59;4962317;28;6780;-75
2023/05/30 00:33:57;;;;;;;;;;;;;;;14.67;43.00;101447.19;4986933;28;6914;-72
2023/05/30 00:36:23;;;;;;;;;;;;;;;14.64;43.89;101453.09;4986845;28;6952;-74
2023/05/30 00:38:49;;;;;;;;;;;;;;;14.60;43.99;101451.16;4969619;28;6918;-73
2023/05/30 00:41:16;;;;;;;;;;;;;;;14.57;43.96;101449.31;4986116;28;7175;-73
2023/05/30 00:43:41;;;;;;;;;;;;;;;14.54;44.26;101446.59;4989652;28;7131;-75
2023/05/30 00:46:10;;;;;;;;;;;;;;;14.51;43.59;101454.19;4974800;28;6844;-72
2023/05/30 00:48:37;;;;;;;;;;;;;;;14.46;43.55;101447.91;4990070;28;6877;-73
2023/05/30 00:51:08;;;;;;;;;;;;;;;14.43;44.86;101445.19;4980233;28;8493;-74
2023/05/30 00:53:34;;;;;;;;;;;;;;;14.38;44.01;101441.50;4936944;28;6993;-72
2023/05/30 00:56:00;;;;;;;;;;;;;;;14.35;44.00;101438.78;4970399;28;6908;-74
2023/05/30 00:58:26;;;;;;;;;;;;;;;14.33;44.99;101449.00;4983989;28;6812;-73
2023/05/30 01:00:53;;;;;;;;;;;;;;;14.32;44.39;101446.38;4989504;28;7022;-74
2023/05/30 01:03:24;;;;;;;;;;;;;;;14.30;44.08;101452.34;4992555;28;7069;-72
2023/05/30 01:05:50;;;;;;;;;;;;;;;14.28;45.10;101453.94;4982712;28;7064;-72
2023/05/30 01:08:16;;;;;;;;;;;;;;;14.27;44.45;101452.16;4988037;28;6799;-74
2023/05/30 01:10:42;;;;;;;;;;;;;;;14.26;44.73;101449.53;4989255;28;7464;-75
2023/05/30 01:13:33;;;;;;;;;;;;;;;14.23;44.84;101446.78;4956603;28;6836;-73
2023/05/30 01:16:08;;;;;;;;;;;;;;;14.15;44.94;101444.72;4987164;28;7470;-73
2023/05/30 01:18:46;;;;;;;;;;;;;;;14.11;44.92;101447.94;4961353;28;6980;-73
2023/05/30 01:21:16;;;;;;;;;;;;;;;14.07;45.02;101451.19;4972911;28;7525;-73
2023/05/30 01:24:06;;;;;;;;;;;;;;;14.01;45.82;101448.28;4984778;28;7138;-73
2023/05/30 01:26:56;;;;;;;;;;;;;;;13.94;45.95;101447.09;4969137;28;7492;-73
2023/05/30 01:29:24;;;;;;;;;;;;;;;13.88;45.81;101447.66;4971030;28;6975;-74
2023/05/30 01:31:52;;;;;;;;;;;;;;;13.86;46.02;101448.38;4961677;28;6954;-74
2023/05/30 01:34:19;;;;;;;;;;;;;;;13.83;46.47;101456.84;4951940;28;6863;-74
2023/05/30 01:36:45;;;;;;;;;;;;;;;13.80;46.04;101451.53;4953492;28;6788;-72
2023/05/30 01:39:11;;;;;;;;;;;;;;;13.77;46.43;101458.22;4956847;28;6771;-73
2023/05/30 01:42:14;;;;;;;;;;;;;;;13.71;46.70;101457.13;4956205;28;6977;-75
2023/05/30 01:44:58;;;;;;;;;;;;;;;13.66;46.29;101460.22;4958469;28;6921;-77
2023/05/30 01:47:37;;;;;;;;;;;;;;;13.61;46.82;101452.25;4943703;28;7258;-77
2023/05/30 01:50:26;;;;;;;;;;;;;;;13.54;47.11;101453.63;4974904;28;7153;-76
2023/05/30 01:52:59;;;;;;;;;;;;;;;13.49;46.46;101462.81;4962451;28;6872;-76
2023/05/30 01:55:26;;;;;;;;;;;;;;;13.46;46.65;101465.22;4942154;28;7241;-75
2023/05/30 01:57:56;;;;;;;;;;;;;;;13.41;46.87;101459.78;4975510;28;7900;-76
2023/05/30 02:00:23;;;;;;;;;;;;;;;13.38;47.30;101457.06;4959142;28;6812;-77
2023/05/30 02:02:48;;;;;;;;;;;;;;;13.34;47.19;101453.44;4962831;28;6820;-77
2023/05/30 02:05:14;;;;;;;;;;;;;;;13.32;46.86;101454.13;4962312;28;6792;-76
2023/05/30 02:07:39;;;;;;;;;;;;;;;13.30;47.91;101458.34;4988371;28;6989;-77
2023/05/30 02:10:06;;;;;;;;;;;;;;;13.27;47.47;101455.59;4985266;28;6945;-77
2023/05/30 02:12:31;;;;;;;;;;;;;;;13.26;48.30;101458.97;4990594;28;7257;-74
2023/05/30 02:14:57;;;;;;;;;;;;;;;13.24;48.40;101456.31;4983835;28;6776;-74
2023/05/30 02:17:25;;;;;;;;;;;;;;;13.24;47.67;101452.88;4989173;28;7208;-74
2023/05/30 02:19:51;;;;;;;;;;;;;;;13.22;47.68;101445.06;4960569;28;6876;-73
2023/05/30 02:22:17;;;;;;;;;;;;;;;13.23;47.91;101451.06;4962669;28;6926;-74
2023/05/30 02:24:44;;;;;;;;;;;;;;;13.20;48.36;101460.41;4956665;28;7258;-74
2023/05/30 02:27:10;;;;;;;;;;;;;;;13.19;47.77;101456.06;4984771;28;6900;-74
2023/05/30 02:29:35;;;;;;;;;;;;;;;13.18;48.43;101462.03;4957359;28;7116;-74
2023/05/30 02:32:01;;;;;;;;;;;;;;;13.16;48.53;101461.06;4964576;28;6858;-74
2023/05/30 02:34:27;;;;;;;;;;;;;;;13.13;47.84;101453.16;4974939;28;6991;-74
2023/05/30 02:36:52;;;;;;;;;;;;;;;13.11;48.45;101454.75;4944870;28;7327;-74
2023/05/30 02:39:18;;;;;;;;;;;;;;;13.08;48.48;101459.75;4954154;28;6865;-74
2023/05/30 02:41:44;;;;;;;;;;;;;;;13.03;48.82;101471.47;4970586;28;6811;-74
2023/05/30 02:44:09;;;;;;;;;;;;;;;13.00;48.53;101463.59;4966389;28;6959;-74
2023/05/30 02:46:35;;;;;;;;;;;;;;;12.96;48.42;101472.81;4977539;28;7027;-74
2023/05/30 02:49:01;;;;;;;;;;;;;;;12.92;48.77;101474.34;4995007;28;7239;-74
2023/05/30 02:51:27;;;;;;;;;;;;;;;12.91;49.09;101471.69;4962168;28;7229;-74
2023/05/30 02:53:53;;;;;;;;;;;;;;;12.86;48.62;101471.44;4960553;28;7226;-74
2023/05/30 02:56:25;;;;;;;;;;;;;;;12.82;49.41;101468.59;4988905;28;6952;-74
2023/05/30 02:58:51;;;;;;;;;;;;;;;12.78;49.49;101470.13;4984451;28;7014;-74
2023/05/30 03:01:17;;;;;;;;;;;;;;;12.76;49.09;101466.59;4957471;28;7261;-74
2023/05/30 03:03:42;;;;;;;;;;;;;;;12.75;48.97;101477.69;4989947;28;6799;-75
2023/05/30 03:06:08;;;;;;;;;;;;;;;12.74;49.84;101479.34;4958619;28;7046;-74
2023/05/30 03:08:36;;;;;;;;;;;;;;;12.72;49.51;101475.81;4953185;28;7666;-72
2023/05/30 03:11:01;;;;;;;;;;;;;;;12.71;49.26;101475.72;4954197;28;7356;-73
2023/05/30 03:13:27;;;;;;;;;;;;;;;12.71;49.51;101484.31;4981345;28;6784;-72
2023/05/30 03:15:52;;;;;;;;;;;;;;;12.71;50.32;101488.56;4980173;28;6967;-73
2023/05/30 03:18:18;;;;;;;;;;;;;;;12.71;49.66;101486.91;4953198;28;7256;-73
2023/05/30 03:20:43;;;;;;;;;;;;;;;12.73;50.18;101486.97;4984384;28;6803;-73
2023/05/30 03:23:09;;;;;;;;;;;;;;;12.73;50.09;101487.88;4961404;28;6956;-72
2023/05/30 03:25:35;;;;;;;;;;;;;;;12.74;50.75;101488.72;4945152;28;6947;-73
2023/05/30 03:28:05;;;;;;;;;;;;;;;12.74;50.34;101487.06;4947613;28;6796;-73
2023/05/30 03:30:34;;;;;;;;;;;;;;;12.74;50.83;101483.59;4985348;28;6881;-72
2023/05/30 03:33:00;;;;;;;;;;;;;;;12.74;50.61;101489.63;4954331;28;6984;-72
2023/05/30 03:35:26;;;;;;;;;;;;;;;12.73;50.93;101481.81;4982935;28;7088;-72
2023/05/30 03:37:52;;;;;;;;;;;;;;;12.73;50.50;101489.53;4985456;28;6776;-73
2023/05/30 03:40:17;;;;;;;;;;;;;;;12.72;50.63;101487.78;4967538;28;6997;-72
2023/05/30 03:42:44;;;;;;;;;;;;;;;12.70;50.50;101477.41;4952880;28;6873;-72
2023/05/30 03:45:10;;;;;;;;;;;;;;;12.72;50.47;101490.34;4956669;28;7231;-75
2023/05/30 03:47:36;;;;;;;;;;;;;;;12.72;51.23;101483.53;4984520;28;6799;-75
2023/05/30 03:50:02;;;;;;;;;;;;;;;12.73;50.87;101484.38;4984417;28;7288;-75
2023/05/30 03:52:28;;;;;;;;;;;;;;;12.74;50.93;101488.72;4963457;28;6976;-75
2023/05/30 03:54:54;;;;;;;;;;;;;;;12.75;50.91;101493.97;4990186;28;6783;-73
2023/05/30 03:57:19;;;;;;;;;;;;;;;12.77;51.25;101497.50;4969631;28;7459;-72
2023/05/30 03:59:45;;;;;;;;;;;;;;;12.81;51.30;101500.28;4957012;28;7772;-73
2023/05/30 04:02:11;;;;;;;;;;;;;;;12.83;50.85;101499.53;4949996;28;7981;-73
2023/05/30 04:04:37;;;;;;;;;;;;;;;12.87;51.32;101511.81;4940918;28;6946;-73
2023/05/30 04:07:03;;;;;;;;;;;;;;;12.91;51.33;101513.72;4989255;28;7296;-73
2023/05/30 04:09:29;;;;;;;;;;;;;;;12.95;51.98;101519.06;4959562;28;7210;-73
2023/05/30 04:11:56;;;;;;;;;;;;;;;13.01;51.34;101519.41;4981104;28;6832;-73
2023/05/30 04:14:21;;;;;;;;;;;;;;;13.06;51.82;101517.97;4984162;28;6780;-73
2023/05/30 04:16:47;;;;;;;;;;;;;;;13.14;51.35;101516.72;4952931;28;7889;-72
2023/05/30 04:19:12;;;;;;;;;;;;;;;13.24;51.96;101522.38;4955130;28;7108;-73
2023/05/30 04:21:39;;;;;;;;;;;;;;;13.38;51.42;101529.16;4957346;28;7167;-72
2023/05/30 04:24:07;;;;;;;;;;;;;;;13.51;51.63;101522.13;4961733;28;7394;-72
2023/05/30 04:26:33;;;;;;;;;;;;;;;13.64;51.41;101519.41;4988237;28;6819;-73
2023/05/30 04:28:58;;;;;;;;;;;;;;;13.77;51.47;101525.22;4987566;28;7339;-73
2023/05/30 04:31:25;;;;;;;;;;;;;;;13.86;51.14;101528.28;4979786;28;6767;-73
2023/05/30 04:33:53;;;;;;;;;;;;;;;13.97;51.79;101528.84;4944375;28;7038;-73
2023/05/30 04:36:19;;;;;;;;;;;;;;;14.07;51.29;101525.03;4984284;28;6875;-73
2023/05/30 04:38:47;;;;;;;;;;;;;;;14.19;51.84;101530.81;4955462;28;6780;-72
2023/05/30 04:41:18;;;;;;;;;;;;;;;14.35;51.88;101526.44;4961133;28;7261;-72
2023/05/30 04:43:48;;;;;;;;;;;;;;;14.53;51.07;101522.22;4970832;28;7215;-72
2023/05/30 04:46:21;;;;;;;;;;;;;;;14.71;51.11;101524.81;4983418;28;6969;-73
2023/05/30 04:48:52;;;;;;;;;;;;;;;14.90;50.29;101514.53;4959580;28;7111;-73
2023/05/30 04:51:22;;;;;;;;;;;;;;;15.09;51.12;101519.78;4987770;28;6791;-73
2023/05/30 04:53:49;;;;;;;;;;;;;;;15.31;50.16;101514.75;4986902;28;6918;-72
2023/05/30 04:56:15;;;;;;;;;;;;;;;15.52;49.89;101514.81;4975640;28;6844;-73
2023/05/30 04:58:44;;;;;;;;;;;;;;;15.70;49.53;101519.94;4986833;28;6868;-73
2023/05/30 05:01:10;;;;;;;;;;;;;;;15.87;49.40;101518.09;4958090;28;7158;-73
2023/05/30 05:03:40;;;;;;;;;;;;;;;16.03;49.27;101522.28;4961347;28;7552;-73
2023/05/30 05:06:07;;;;;;;;;;;;;;;16.17;48.88;101520.28;4961980;28;7276;-73
2023/05/30 05:08:36;;;;;;;;;;;;;;;16.30;48.68;101510.47;4947983;28;6812;-73
2023/05/30 05:11:04;;;;;;;;;;;;;;;16.40;48.39;101512.59;4985953;28;6964;-73
2023/05/30 05:13:31;;;;;;;;;;;;;;;16.47;47.69;101503.41;4958381;28;6881;-72
2023/05/30 05:15:57;;;;;;;;;;;;;;;16.48;47.42;101507.78;4955799;28;7152;-73
2023/05/30 05:18:23;;;;;;;;;;;;;;;16.50;47.81;101509.56;4958967;28;6927;-73
2023/05/30 05:20:49;;;;;;;;;;;;;;;16.57;47.27;101517.59;4972131;28;6853;-73
2023/05/30 05:23:15;;;;;;;;;;;;;;;16.64;47.49;101510.16;4947490;28;7311;-73
2023/05/30 05:25:41;;;;;;;;;;;;;;;16.74;47.44;101513.09;4992791;28;6776;-73
2023/05/30 05:28:06;;;;;;;;;;;;;;;16.82;46.63;101503.09;4992157;28;6960;-73
2023/05/30 05:30:32;;;;;;;;;;;;;;;16.83;46.78;101510.03;4971956;28;6865;-73
2023/05/30 05:32:58;;;;;;;;;;;;;;;16.80;46.65;101515.97;4985720;28;6844;-73
2023/05/30 05:35:24;;;;;;;;;;;;;;;16.78;46.75;101518.47;4944411;28;6959;-73
2023/05/30 05:37:49;;;;;;;;;;;;;;;16.74;46.74;101514.00;4957158;28;6860;-73
2023/05/30 05:40:15;;;;;;;;;;;;;;;16.73;47.12;101519.13;4949643;28;7014;-73
2023/05/30 05:42:44;;;;;;;;;;;;;;;16.79;46.49;101519.38;4966952;28;7989;-73
2023/05/30 05:45:10;;;;;;;;;;;;;;;16.88;46.55;101518.84;4959044;28;7031;-73
2023/05/30 05:47:36;;;;;;;;;;;;;;;16.93;46.55;101523.38;4988419;28;6983;-73
2023/05/30 05:50:01;;;;;;;;;;;;;;;16.94;46.28;101527.72;4975571;28;7241;-73
2023/05/30 05:52:27;;;;;;;;;;;;;;;16.91;45.55;101529.34;4953619;28;6788;-73
2023/05/30 05:54:53;;;;;;;;;;;;;;;16.79;45.51;101528.00;4975961;28;6950;-73
2023/05/30 05:57:19;;;;;;;;;;;;;;;16.69;45.42;101540.53;4957333;28;6819;-73
2023/05/30 05:59:44;;;;;;;;;;;;;;;16.58;45.70;101546.16;4959424;28;7115;-73
2023/05/30 06:02:11;;;;;;;;;;;;;;;16.48;45.84;101550.03;4981835;28;7291;-72
2023/05/30 06:04:38;;;;;;;;;;;;;;;16.38;45.84;101547.88;4982960;28;6808;-73
2023/05/30 06:07:04;;;;;;;;;;;;;;;16.28;45.91;101548.31;4983107;28;8815;-73
2023/05/30 06:09:31;;;;;;;;;;;;;;;16.22;46.04;101543.75;4973705;28;7068;-73
2023/05/30 06:12:03;;;;;;;;;;;;;;;16.18;46.17;101549.63;4955988;28;6788;-73
2023/05/30 06:14:29;;;;;;;;;;;;;;;16.15;46.39;101549.47;4956578;28;6853;-73
2023/05/30 06:16:55;;;;;;;;;;;;;;;16.12;46.50;101555.41;4960627;28;6779;-73
2023/05/30 06:19:20;;;;;;;;;;;;;;;16.10;46.39;101547.59;4988355;28;6772;-73
2023/05/30 06:21:46;;;;;;;;;;;;;;;16.10;46.39;101546.69;4980201;28;7178;-73
2023/05/30 06:24:12;;;;;;;;;;;;;;;16.11;46.54;101551.03;4964801;28;6840;-73
2023/05/30 06:26:38;;;;;;;;;;;;;;;16.12;46.77;101550.22;4963184;28;7012;-73
2023/05/30 06:29:03;;;;;;;;;;;;;;;16.12;46.66;101554.53;4971627;28;6965;-73
2023/05/30 06:31:29;;;;;;;;;;;;;;;16.15;46.49;101563.31;4987914;28;6844;-73
2023/05/30 06:33:54;;;;;;;;;;;;;;;16.20;46.88;101563.50;4985150;28;6848;-72
2023/05/30 06:36:20;;;;;;;;;;;;;;;16.24;46.63;101561.13;4986761;28;6772;-72
2023/05/30 06:38:46;;;;;;;;;;;;;;;16.28;46.49;101563.84;4955311;28;6772;-73
2023/05/30 06:41:12;;;;;;;;;;;;;;;16.30;46.48;101572.53;4975492;28;6979;-72
2023/05/30 06:43:38;;;;;;;;;;;;;;;16.35;46.55;101568.47;4989177;28;6973;-73
2023/05/30 06:46:05;;;;;;;;;;;;;;;16.40;46.47;101572.13;4985623;28;8577;-72
2023/05/30 06:48:31;;;;;;;;;;;;;;;16.51;46.73;101564.81;4946292;28;7134;-73
2023/05/30 06:50:57;;;;;;;;;;;;;;;16.62;47.09;101567.88;4989949;28;6772;-73
2023/05/30 06:53:23;;;;;;;;;;;;;;;16.75;46.50;101561.47;4952104;28;7158;-72
2023/05/30 06:55:48;;;;;;;;;;;;;;;16.84;46.08;101566.16;4980127;28;7247;-72
2023/05/30 06:58:14;;;;;;;;;;;;;;;16.86;46.11;101567.09;4951116;28;7311;-72
2023/05/30 07:00:40;;;;;;;;;;;;;;;16.92;45.96;101572.53;4971872;28;7222;-73
2023/05/30 07:03:06;;;;;;;;;;;;;;;17.11;46.50;101566.41;4957286;28;7321;-73
2023/05/30 07:05:31;;;;;;;;;;;;;;;17.43;46.75;101568.50;4989095;28;7297;-72
2023/05/30 07:07:57;;;;;;;;;;;;;;;17.74;46.24;101574.84;4984902;28;7275;-73
2023/05/30 07:10:23;;;;;;;;;;;;;;;17.99;45.76;101578.34;4958543;28;6850;-73
2023/05/30 07:12:48;;;;;;;;;;;;;;;18.14;45.29;101578.03;4957152;28;7016;-73
2023/05/30 07:15:14;;;;;;;;;;;;;;;18.24;44.88;101576.63;4968391;28;7341;-73
2023/05/30 07:17:39;;;;;;;;;;;;;;;18.31;44.44;101573.44;4985012;28;6875;-73
2023/05/30 07:20:06;;;;;;;;;;;;;;;18.40;44.10;101570.28;4984252;28;10121;-73
2023/05/30 07:22:32;;;;;;;;;;;;;;;18.49;43.99;101564.53;4989700;28;7392;-73
2023/05/30 07:24:58;;;;;;;;;;;;;;;18.56;43.56;101571.69;4959176;28;6876;-73
2023/05/30 07:27:24;;;;;;;;;;;;;;;18.66;43.49;101568.56;4967616;28;6772;-72
2023/05/30 07:29:49;;;;;;;;;;;;;;;18.86;43.02;101565.75;4991740;28;6784;-73
2023/05/30 07:32:15;;;;;;;;;;;;;;;19.01;42.81;101561.06;4973258;28;7153;-73
2023/05/30 07:34:41;;;;;;;;;;;;;;;19.11;42.87;101564.84;4987914;28;6792;-73
2023/05/30 07:37:08;;;;;;;;;;;;;;;19.32;42.68;101565.47;4989635;28;7114;-73
2023/05/30 07:39:33;;;;;;;;;;;;;;;19.61;43.00;101562.84;4973855;28;8222;-74
2023/05/30 07:42:00;;;;;;;;;;;;;;;19.94;42.29;101568.19;4988972;28;6986;-73
2023/05/30 07:44:26;;;;;;;;;;;;;;;20.27;41.89;101566.41;4956331;28;6792;-73
2023/05/30 07:46:51;;;;;;;;;;;;;;;20.54;41.19;101561.06;4990206;28;6968;-74
2023/05/30 07:49:19;;;;;;;;;;;;;;;20.76;40.76;101564.19;4960094;28;6791;-74
2023/05/30 07:51:44;;;;;;;;;;;;;;;20.92;40.02;101562.88;4956927;28;7875;-74
2023/05/30 07:54:10;;;;;;;;;;;;;;;21.05;39.97;101563.13;4958905;28;6768;-74
2023/05/30 07:56:35;;;;;;;;;;;;;;;21.16;40.06;101566.91;4965684;28;7013;-74
2023/05/30 07:59:01;;;;;;;;;;;;;;;21.26;39.32;101567.97;4987441;28;6764;-73
2023/05/30 08:01:27;;;;;;;;;;;;;;;21.27;39.10;101556.69;4983205;28;6955;-73
2023/05/30 08:03:53;;;;;;;;;;;;;;;21.31;39.36;101561.16;4969237;28;6763;-73
2023/05/30 08:06:19;;;;;;;;;;;;;;;21.43;39.11;101563.13;4957545;28;7302;-71
2023/05/30 08:08:45;;;;;;;;;;;;;;;21.55;39.23;101569.47;4984434;28;6774;-73
2023/05/30 08:11:11;;;;;;;;;;;;;;;21.54;38.66;101558.13;4962316;28;6800;-71
2023/05/30 08:13:37;;;;;;;;;;;;;;;21.44;38.45;101557.09;4943902;28;7187;-71
2023/05/30 08:16:03;;;;;;;;;;;;;;;21.46;38.54;101560.59;4952249;28;7011;-73
2023/05/30 08:18:30;;;;;;;;;;;;;;;21.51;38.07;101553.72;4958302;28;7214;-71
2023/05/30 08:20:56;;;;;;;;;;;;;;;21.54;37.85;101552.94;4946247;28;7459;-72
2023/05/30 08:23:22;;;;;;;;;;;;;;;21.60;37.65;101557.38;4961420;28;7004;-73
2023/05/30 08:25:48;;;;;;;;;;;;;;;21.68;37.83;101549.75;4956484;28;6768;-71
2023/05/30 08:28:14;;;;;;;;;;;;;;;21.81;37.49;101551.75;4961966;28;6784;-73
2023/05/30 08:30:43;;;;;;;;;;;;;;;21.99;37.05;101555.59;4964590;28;7215;-71
2023/05/30 08:33:10;;;;;;;;;;;;;;;22.10;36.60;101547.94;4984161;28;6799;-71
2023/05/30 08:35:35;;;;;;;;;;;;;;;22.18;36.71;101557.69;4987279;28;6772;-73
2023/05/30 08:38:01;;;;;;;;;;;;;;;22.37;36.66;101546.69;4983015;28;6918;-74
2023/05/30 08:40:26;;;;;;;;;;;;;;;22.61;36.36;101554.97;4995920;28;7227;-72
2023/05/30 08:42:53;;;;;;;;;;;;;;;22.75;36.23;101544.75;4990959;28;7185;-72
2023/05/30 08:45:22;;;;;;;;;;;;;;;22.88;36.03;101543.16;4948392;28;7250;-73
2023/05/30 08:47:56;;;;;;;;;;;;;;;23.02;35.31;101546.00;4967090;28;6800;-73
2023/05/30 08:50:25;;;;;;;;;;;;;;;23.14;35.00;101534.84;4989333;28;6894;-72
2023/05/30 08:52:53;;;;;;;;;;;;;;;23.28;34.58;101544.66;4993961;28;6796;-72
2023/05/30 08:55:34;;;;;;;;;;;;;;;23.52;34.32;101533.63;4946288;28;6872;-72
2023/05/30 08:58:22;;;;;;;;;;;;;;;23.83;34.06;101531.34;4950325;28;7269;-72
2023/05/30 09:00:49;;;;;;;;;;;;;;;24.10;33.92;101527.31;4964180;28;7118;-71
2023/05/30 09:03:16;;;;;;;;;;;;;;;24.33;33.42;101528.34;4994318;28;7278;-71
2023/05/30 09:05:44;;;;;;;;;;;;;;;24.53;33.08;101532.03;4992605;28;6999;-71
2023/05/30 09:08:13;;;;;;;;;;;;;;;24.62;32.71;101523.38;4970740;28;6864;-71
2023/05/30 09:10:48;;;;;;;;;;;;;;;24.69;32.68;101525.16;4966473;28;6957;-71
2023/05/30 09:13:17;;;;;;;;;;;;;;;24.69;32.28;101513.78;4980254;28;6811;-73
2023/05/30 09:15:44;;;;;;;;;;;;;;;24.72;31.92;101512.94;4956571;28;6792;-72
2023/05/30 09:18:10;;;;;;;;;;;;;;;24.78;32.04;101513.03;4977928;28;6852;-71
2023/05/30 09:20:38;;;;;;;;;;;;;;;24.85;31.50;101519.19;4987409;28;6780;-72
2023/05/30 09:23:03;;;;;;;;;;;;;;;24.83;31.28;101516.53;4973013;28;6792;-70
2023/05/30 09:25:48;;;;;;;;;;;;;;;24.75;30.79;101513.84;4956547;28;6792;-72
2023/05/30 09:28:14;;;;;;;;;;;;;;;24.65;31.35;101520.75;4969054;28;7179;-72
2023/05/30 09:30:54;;;;;;;;;;;;;;;24.66;31.56;101519.88;4953490;28;8491;-73
2023/05/30 09:33:20;;;;;;;;;;;;;;;24.65;31.12;101515.50;4953646;28;6869;-72
2023/05/30 09:35:49;;;;;;;;;;;;;;;24.62;31.38;101517.22;4943200;28;7192;-72
2023/05/30 09:38:15;;;;;;;;;;;;;;;24.67;31.36;101511.19;4986470;28;6803;-73
2023/05/30 09:40:42;;;;;;;;;;;;;;;24.79;30.72;101518.25;4935468;28;6987;-73
2023/05/30 09:43:07;;;;;;;;;;;;;;;24.98;30.66;101517.53;4955452;28;7205;-72
2023/05/30 09:45:33;;;;;;;;;;;;;;;25.03;30.51;101515.78;4983138;28;6962;-72
2023/05/30 09:47:58;;;;;;;;;;;;;;;25.18;30.13;101504.50;4957672;28;7666;-72
2023/05/30 09:50:24;;;;;;;;;;;;;;;25.37;30.30;101510.72;4986646;28;7228;-73
2023/05/30 09:52:56;;;;;;;;;;;;;;;25.55;30.25;101503.81;4973774;28;7139;-72
2023/05/30 09:55:25;;;;;;;;;;;;;;;25.71;29.53;101513.47;4972704;28;7726;-72
2023/05/30 09:57:53;;;;;;;;;;;;;;;25.81;29.54;101496.00;4974093;28;6800;-71
2023/05/30 10:00:26;;;;;;;;;;;;;;;26.03;29.39;101493.38;4936414;28;7192;-74
2023/05/30 10:02:54;;;;;;;;;;;;;;;26.15;28.87;101498.63;4963535;28;6946;-72
2023/05/30 10:05:24;;;;;;;;;;;;;;;26.24;28.79;101492.56;4986392;28;6879;-74
2023/05/30 10:07:53;;;;;;;;;;;;;;;26.38;28.46;101492.56;4959797;28;7115;-73
2023/05/30 10:10:19;;;;;;;;;;;;;;;26.58;28.45;101489.03;4986929;28;6894;-71
2023/05/30 10:12:51;;;;;;;;;;;;;;;26.89;28.34;101487.22;4985264;28;6827;-72
2023/05/30 10:15:20;;;;;;;;;;;;;;;27.20;27.79;101491.50;4954280;28;7297;-73
2023/05/30 10:18:08;;;;;;;;;;;;;;;27.31;27.65;101487.06;4981798;28;10029;-72
2023/05/30 10:20:44;;;;;;;;;;;;;;;27.37;27.41;101490.56;4955286;28;6808;-70
2023/05/30 10:23:13;;;;;;;;;;;;;;;27.41;27.21;101487.03;4972747;28;6995;-73
2023/05/30 10:25:46;;;;;;;;;;;;;;;27.44;27.18;101487.03;4988620;28;6902;-73
2023/05/30 10:28:20;;;;;;;;;;;;;;;27.48;26.95;101483.47;4963055;28;6796;-73
2023/05/30 10:30:47;;;;;;;;;;;;;;;27.48;27.01;101478.22;4957811;28;7404;-74
2023/05/30 10:33:16;;;;;;;;;;;;;;;27.56;27.18;101480.81;4971839;28;6795;-74
2023/05/30 10:35:42;;;;;;;;;;;;;;;27.67;26.83;101489.56;4972451;28;7014;-74
2023/05/30 10:38:14;;;;;;;;;;;;;;;27.69;26.91;101497.44;4985078;28;6788;-74
2023/05/30 10:41:09;;;;;;;;;;;;;;;27.66;26.95;101482.53;4992902;28;7257;-74
2023/05/30 10:44:03;;;;;;;;;;;;;;;27.75;26.75;101481.59;4993042;28;10079;-73
2023/05/30 10:46:53;;;;;;;;;;;;;;;27.82;26.19;101475.41;4990699;28;7216;-74
2023/05/30 10:49:25;;;;;;;;;;;;;;;27.88;26.34;101478.88;4989123;28;6939;-74
2023/05/30 10:51:58;;;;;;;;;;;;;;;27.93;26.40;101463.94;4973997;28;7304;-73
2023/05/30 10:54:27;;;;;;;;;;;;;;;28.04;26.06;101467.34;4988085;28;6795;-74
2023/05/30 10:56:53;;;;;;;;;;;;;;;28.17;26.10;101472.50;4957054;28;7456;-74
2023/05/30 10:59:19;;;;;;;;;;;;;;;28.20;25.31;101472.50;4940839;28;8875;-74
2023/05/30 11:02:04;;;;;;;;;;;;;;;28.31;25.85;101473.28;4968450;28;7371;-73
2023/05/30 11:04:38;;;;;;;;;;;;;;;28.36;25.17;101463.56;4955311;28;6888;-73
2023/05/30 11:07:05;;;;;;;;;;;;;;;28.39;25.27;101468.84;4957411;28;6856;-74
2023/05/30 11:09:32;;;;;;;;;;;;;;;28.45;25.58;101462.63;4976000;28;8497;-74
2023/05/30 11:12:00;;;;;;;;;;;;;;;28.69;25.85;101471.16;4999249;28;7432;-73
2023/05/30 11:14:35;;;;;;;;;;;;;;;28.84;24.80;101472.78;4983994;28;7402;-74
2023/05/30 11:17:05;;;;;;;;;;;;;;;28.79;24.48;101461.38;4993328;28;6800;-74
2023/05/30 11:19:43;;;;;;;;;;;;;;;28.69;24.53;101458.84;4980586;28;6923;-73
2023/05/30 11:22:16;;;;;;;;;;;;;;;28.72;24.62;101465.84;4959253;28;6800;-74
2023/05/30 11:24:46;;;;;;;;;;;;;;;28.79;24.43;101461.38;4991607;28;6807;-73
2023/05/30 11:27:14;;;;;;;;;;;;;;;28.73;23.95;101458.81;4941812;28;7198;-73
2023/05/30 11:29:47;;;;;;;;;;;;;;;28.76;24.21;101451.75;4955449;28;6780;-73
2023/05/30 11:32:19;;;;;;;;;;;;;;;28.77;24.81;101457.88;4956747;28;6835;-73
2023/05/30 11:34:46;;;;;;;;;;;;;;;28.68;24.13;101449.19;4958622;28;7020;-73
2023/05/30 11:37:11;;;;;;;;;;;;;;;28.74;24.26;101450.00;4977708;28;6986;-74
2023/05/30 11:39:37;;;;;;;;;;;;;;;28.87;23.54;101438.44;4991843;28;6772;-73
2023/05/30 11:42:08;;;;;;;;;;;;;;;28.99;23.84;101437.41;4960423;28;6780;-74
2023/05/30 11:44:33;;;;;;;;;;;;;;;29.15;23.82;101443.34;4982202;28;7400;-73
2023/05/30 11:47:06;;;;;;;;;;;;;;;29.17;23.25;101440.72;4959686;28;6764;-73
2023/05/30 11:49:33;;;;;;;;;;;;;;;29.17;23.75;101441.59;4986479;28;6812;-73
2023/05/30 11:51:58;;;;;;;;;;;;;;;29.09;23.57;101439.03;4994780;28;6911;-73
2023/05/30 11:54:26;;;;;;;;;;;;;;;28.90;23.73;101442.81;4984405;28;7166;-73
2023/05/30 11:56:53;;;;;;;;;;;;;;;28.79;23.57;101435.88;4963597;28;6816;-73
2023/05/30 11:59:21;;;;;;;;;;;;;;;28.66;24.08;101434.28;4975750;28;6999;-75
2023/05/30 12:01:56;;;;;;;;;;;;;;;28.65;24.12;101430.75;4970046;28;6832;-73
2023/05/30 12:04:26;;;;;;;;;;;;;;;28.67;24.24;101431.59;4966269;28;6875;-73
2023/05/30 12:06:57;;;;;;;;;;;;;;;28.75;24.11;101425.38;4967522;28;6931;-73
2023/05/30 12:09:22;;;;;;;;;;;;;;;28.98;24.09;101429.53;4963589;28;6808;-73
2023/05/30 12:11:58;;;;;;;;;;;;;;;29.18;23.61;101422.22;4996941;28;6839;-73
2023/05/30 12:14:56;;;;;;;;;;;;;;;29.41;23.96;101409.56;4983299;28;6792;-73
2023/05/30 12:17:24;;;;;;;;;;;;;;;29.60;22.78;101418.13;4965323;28;6812;-73
2023/05/30 12:20:04;;;;;;;;;;;;;;;29.51;22.96;101409.44;4981997;28;6991;-73
2023/05/30 12:22:32;;;;;;;;;;;;;;;29.38;22.77;101413.16;4967251;28;6800;-73
2023/05/30 12:24:58;;;;;;;;;;;;;;;29.32;23.19;101403.56;4997547;28;6966;-73
2023/05/30 12:27:26;;;;;;;;;;;;;;;29.40;23.25;101400.78;4964912;28;6784;-73
2023/05/30 12:29:52;;;;;;;;;;;;;;;29.45;22.90;101393.69;4979703;28;6781;-73
2023/05/30 12:32:23;;;;;;;;;;;;;;;29.47;22.79;101394.56;4958341;28;6828;-73
2023/05/30 12:34:50;;;;;;;;;;;;;;;29.51;23.05;101398.03;4988260;28;6788;-73
2023/05/30 12:37:18;;;;;;;;;;;;;;;29.56;22.91;101384.75;4996657;28;6867;-73
2023/05/30 12:39:56;;;;;;;;;;;;;;;29.50;23.01;101386.59;4978700;28;7460;-73
2023/05/30 12:42:27;;;;;;;;;;;;;;;29.47;23.29;101376.06;4965726;28;6796;-73
2023/05/30 12:45:01;;;;;;;;;;;;;;;29.57;22.94;101379.44;4997540;28;6792;-73
2023/05/30 12:47:28;;;;;;;;;;;;;;;29.46;23.00;101376.97;4974889;28;6825;-73
2023/05/30 12:49:55;;;;;;;;;;;;;;;29.34;22.75;101363.91;4955546;28;7239;-73
2023/05/30 12:52:27;;;;;;;;;;;;;;;29.22;22.40;101373.78;4969059;28;6796;-73